sensor_id;sensor_type;location;lat;lon;timestamp;P1;durP1;ratioP1;P2;durP2;ratioP2
815;SDS011;25928;51.062;13.752;2023-04-28T00:00:48;11.07;;;9.30;;
815;SDS011;25928;51.062;13.752;2023-04-28T00:03:15;10.43;;;9.30;;
815;SDS011;25928;51.062;13.752;2023-04-28T00:05:40;9.93;;;8.93;;
815;SDS011;25928;51.062;13.752;2023-04-28T00:08:06;12.47;;;9.17;;
815;SDS011;25928;51.062;13.752;2023-04-28T00:10:32;11.17;;;9.33;;
815;SDS011;25928;51.062;13.752;2023-04-28T00:12:58;13.03;;;10.50;;
815;SDS011;25928;51.062;13.752;2023-04-28T00:15:23;11.10;;;10.00;;
815;SDS011;25928;51.062;13.752;2023-04-28T00:17:49;9.67;;;8.77;;
815;SDS011;25928;51.062;13.752;2023-04-28T00:20:15;12.67;;;11.40;;
815;SDS011;25928;51.062;13.752;2023-04-28T00:22:41;13.20;;;10.10;;
815;SDS011;25928;51.062;13.752;2023-04-28T00:25:06;11.80;;;9.70;;
815;SDS011;25928;51.062;13.752;2023-04-28T00:27:33;10.63;;;8.40;;
815;SDS011;25928;51.062;13.752;2023-04-28T00:29:59;10.03;;;9.10;;
815;SDS011;25928;51.062;13.752;2023-04-28T00:32:25;10.27;;;9.20;;
815;SDS011;25928;51.062;13.752;2023-04-28T00:34:50;9.93;;;8.93;;
815;SDS011;25928;51.062;13.752;2023-04-28T00:37:17;10.37;;;9.23;;
815;SDS011;25928;51.062;13.752;2023-04-28T00:39:46;11.47;;;9.23;;
815;SDS011;25928;51.062;13.752;2023-04-28T00:42:12;10.03;;;9.13;;
815;SDS011;25928;51.062;13.752;2023-04-28T00:44:38;12.70;;;10.40;;
815;SDS011;25928;51.062;13.752;2023-04-28T00:47:05;11.00;;;9.90;;
815;SDS011;25928;51.062;13.752;2023-04-28T00:49:32;10.60;;;9.50;;
815;SDS011;25928;51.062;13.752;2023-04-28T00:52:00;12.47;;;9.70;;
815;SDS011;25928;51.062;13.752;2023-04-28T00:54:29;12.20;;;9.97;;
815;SDS011;25928;51.062;13.752;2023-04-28T00:56:54;14.03;;;10.83;;
815;SDS011;25928;51.062;13.752;2023-04-28T00:59:21;11.83;;;10.00;;
815;SDS011;25928;51.062;13.752;2023-04-28T01:01:47;14.33;;;10.13;;
815;SDS011;25928;51.062;13.752;2023-04-28T01:04:14;13.87;;;11.50;;
815;SDS011;25928;51.062;13.752;2023-04-28T01:06:44;14.77;;;10.47;;
815;SDS011;25928;51.062;13.752;2023-04-28T01:09:11;16.50;;;11.20;;
815;SDS011;25928;51.062;13.752;2023-04-28T01:11:36;13.77;;;12.00;;
815;SDS011;25928;51.062;13.752;2023-04-28T01:14:02;12.30;;;10.90;;
815;SDS011;25928;51.062;13.752;2023-04-28T01:16:28;15.33;;;11.77;;
815;SDS011;25928;51.062;13.752;2023-04-28T01:18:56;14.00;;;10.77;;
815;SDS011;25928;51.062;13.752;2023-04-28T01:21:31;11.23;;;9.90;;
815;SDS011;25928;51.062;13.752;2023-04-28T01:23:58;12.30;;;10.13;;
815;SDS011;25928;51.062;13.752;2023-04-28T01:26:24;12.70;;;10.33;;
815;SDS011;25928;51.062;13.752;2023-04-28T01:28:50;11.63;;;9.40;;
815;SDS011;25928;51.062;13.752;2023-04-28T01:31:16;13.50;;;10.67;;
815;SDS011;25928;51.062;13.752;2023-04-28T01:33:42;10.57;;;9.33;;
815;SDS011;25928;51.062;13.752;2023-04-28T01:36:08;11.80;;;10.70;;
815;SDS011;25928;51.062;13.752;2023-04-28T01:38:33;13.90;;;9.50;;
815;SDS011;25928;51.062;13.752;2023-04-28T01:40:59;12.50;;;11.30;;
815;SDS011;25928;51.062;13.752;2023-04-28T01:43:27;11.93;;;9.97;;
815;SDS011;25928;51.062;13.752;2023-04-28T01:45:53;11.30;;;10.10;;
815;SDS011;25928;51.062;13.752;2023-04-28T01:48:18;10.83;;;9.83;;
815;SDS011;25928;51.062;13.752;2023-04-28T01:50:44;11.63;;;10.40;;
815;SDS011;25928;51.062;13.752;2023-04-28T01:53:10;13.00;;;10.20;;
815;SDS011;25928;51.062;13.752;2023-04-28T01:55:36;13.10;;;10.47;;
815;SDS011;25928;51.062;13.752;2023-04-28T01:58:02;11.33;;;10.13;;
815;SDS011;25928;51.062;13.752;2023-04-28T02:00:28;12.60;;;10.20;;
815;SDS011;25928;51.062;13.752;2023-04-28T02:02:54;13.77;;;10.57;;
815;SDS011;25928;51.062;13.752;2023-04-28T02:05:20;11.03;;;9.73;;
815;SDS011;25928;51.062;13.752;2023-04-28T02:07:45;10.97;;;9.30;;
815;SDS011;25928;51.062;13.752;2023-04-28T02:10:11;11.23;;;9.30;;
815;SDS011;25928;51.062;13.752;2023-04-28T02:12:37;10.33;;;9.33;;
815;SDS011;25928;51.062;13.752;2023-04-28T02:15:02;14.80;;;10.70;;
815;SDS011;25928;51.062;13.752;2023-04-28T02:17:29;12.33;;;10.50;;
815;SDS011;25928;51.062;13.752;2023-04-28T02:19:55;12.07;;;10.73;;
815;SDS011;25928;51.062;13.752;2023-04-28T02:22:21;13.30;;;11.77;;
815;SDS011;25928;51.062;13.752;2023-04-28T02:24:47;13.70;;;10.40;;
815;SDS011;25928;51.062;13.752;2023-04-28T02:27:13;12.50;;;11.10;;
815;SDS011;25928;51.062;13.752;2023-04-28T02:29:39;12.23;;;10.83;;
815;SDS011;25928;51.062;13.752;2023-04-28T02:32:05;12.40;;;11.10;;
815;SDS011;25928;51.062;13.752;2023-04-28T02:34:30;11.37;;;9.87;;
815;SDS011;25928;51.062;13.752;2023-04-28T02:36:56;11.73;;;9.50;;
815;SDS011;25928;51.062;13.752;2023-04-28T02:39:21;11.57;;;10.10;;
815;SDS011;25928;51.062;13.752;2023-04-28T02:41:50;17.10;;;10.57;;
815;SDS011;25928;51.062;13.752;2023-04-28T02:44:19;10.30;;;9.40;;
815;SDS011;25928;51.062;13.752;2023-04-28T02:46:45;11.60;;;9.30;;
815;SDS011;25928;51.062;13.752;2023-04-28T02:49:11;11.27;;;10.10;;
815;SDS011;25928;51.062;13.752;2023-04-28T02:51:37;15.27;;;9.00;;
815;SDS011;25928;51.062;13.752;2023-04-28T02:54:02;10.80;;;9.73;;
815;SDS011;25928;51.062;13.752;2023-04-28T02:56:28;11.13;;;9.60;;
815;SDS011;25928;51.062;13.752;2023-04-28T02:58:54;11.80;;;9.37;;
815;SDS011;25928;51.062;13.752;2023-04-28T03:01:20;10.43;;;9.30;;
815;SDS011;25928;51.062;13.752;2023-04-28T03:03:47;11.90;;;9.80;;
815;SDS011;25928;51.062;13.752;2023-04-28T03:06:12;11.00;;;9.67;;
815;SDS011;25928;51.062;13.752;2023-04-28T03:08:38;10.70;;;9.60;;
815;SDS011;25928;51.062;13.752;2023-04-28T03:11:03;10.90;;;9.80;;
815;SDS011;25928;51.062;13.752;2023-04-28T03:13:29;11.90;;;9.90;;
815;SDS011;25928;51.062;13.752;2023-04-28T03:15:55;10.10;;;8.60;;
815;SDS011;25928;51.062;13.752;2023-04-28T03:18:21;14.07;;;9.17;;
815;SDS011;25928;51.062;13.752;2023-04-28T03:20:47;11.00;;;9.90;;
815;SDS011;25928;51.062;13.752;2023-04-28T03:23:13;10.43;;;9.53;;
815;SDS011;25928;51.062;13.752;2023-04-28T03:25:38;10.80;;;9.80;;
815;SDS011;25928;51.062;13.752;2023-04-28T03:28:04;10.30;;;9.27;;
815;SDS011;25928;51.062;13.752;2023-04-28T03:30:30;10.47;;;9.33;;
815;SDS011;25928;51.062;13.752;2023-04-28T03:32:56;10.80;;;9.80;;
815;SDS011;25928;51.062;13.752;2023-04-28T03:35:21;12.70;;;10.47;;
815;SDS011;25928;51.062;13.752;2023-04-28T03:37:47;12.33;;;11.13;;
815;SDS011;25928;51.062;13.752;2023-04-28T03:40:13;13.60;;;9.80;;
815;SDS011;25928;51.062;13.752;2023-04-28T03:42:39;11.37;;;10.20;;
815;SDS011;25928;51.062;13.752;2023-04-28T03:45:05;12.63;;;10.27;;
815;SDS011;25928;51.062;13.752;2023-04-28T03:47:31;12.77;;;10.00;;
815;SDS011;25928;51.062;13.752;2023-04-28T03:49:57;11.37;;;9.70;;
815;SDS011;25928;51.062;13.752;2023-04-28T03:52:23;10.20;;;9.20;;
815;SDS011;25928;51.062;13.752;2023-04-28T03:54:49;12.63;;;11.17;;
815;SDS011;25928;51.062;13.752;2023-04-28T03:57:15;12.50;;;9.70;;
815;SDS011;25928;51.062;13.752;2023-04-28T03:59:41;10.40;;;9.33;;
815;SDS011;25928;51.062;13.752;2023-04-28T04:02:07;11.13;;;9.90;;
815;SDS011;25928;51.062;13.752;2023-04-28T04:04:32;12.80;;;10.63;;
815;SDS011;25928;51.062;13.752;2023-04-28T04:06:58;12.57;;;9.43;;
815;SDS011;25928;51.062;13.752;2023-04-28T04:09:24;10.57;;;9.57;;
815;SDS011;25928;51.062;13.752;2023-04-28T04:11:50;12.77;;;9.80;;
815;SDS011;25928;51.062;13.752;2023-04-28T04:14:16;10.83;;;9.30;;
815;SDS011;25928;51.062;13.752;2023-04-28T04:16:42;10.47;;;9.43;;
815;SDS011;25928;51.062;13.752;2023-04-28T04:19:07;12.60;;;9.10;;
815;SDS011;25928;51.062;13.752;2023-04-28T04:21:33;11.90;;;9.90;;
815;SDS011;25928;51.062;13.752;2023-04-28T04:23:58;11.50;;;9.00;;
815;SDS011;25928;51.062;13.752;2023-04-28T04:26:25;10.53;;;9.40;;
815;SDS011;25928;51.062;13.752;2023-04-28T04:28:50;15.10;;;11.00;;
815;SDS011;25928;51.062;13.752;2023-04-28T04:31:16;10.90;;;9.80;;
815;SDS011;25928;51.062;13.752;2023-04-28T04:33:43;14.50;;;10.63;;
815;SDS011;25928;51.062;13.752;2023-04-28T04:36:09;10.73;;;9.63;;
815;SDS011;25928;51.062;13.752;2023-04-28T04:38:35;11.47;;;10.00;;
815;SDS011;25928;51.062;13.752;2023-04-28T04:41:00;10.67;;;9.53;;
815;SDS011;25928;51.062;13.752;2023-04-28T04:43:26;12.53;;;10.30;;
815;SDS011;25928;51.062;13.752;2023-04-28T04:45:52;12.60;;;10.10;;
815;SDS011;25928;51.062;13.752;2023-04-28T04:48:18;10.03;;;8.40;;
815;SDS011;25928;51.062;13.752;2023-04-28T04:50:43;11.53;;;9.40;;
815;SDS011;25928;51.062;13.752;2023-04-28T04:53:09;15.57;;;9.90;;
815;SDS011;25928;51.062;13.752;2023-04-28T04:55:34;10.10;;;9.00;;
815;SDS011;25928;51.062;13.752;2023-04-28T04:58:00;10.60;;;9.60;;
815;SDS011;25928;51.062;13.752;2023-04-28T05:00:26;13.97;;;9.80;;
815;SDS011;25928;51.062;13.752;2023-04-28T05:02:52;14.90;;;9.20;;
815;SDS011;25928;51.062;13.752;2023-04-28T05:05:17;14.63;;;9.60;;
815;SDS011;25928;51.062;13.752;2023-04-28T05:07:43;10.90;;;8.70;;
815;SDS011;25928;51.062;13.752;2023-04-28T05:10:09;12.77;;;9.67;;
815;SDS011;25928;51.062;13.752;2023-04-28T05:12:35;12.20;;;10.10;;
815;SDS011;25928;51.062;13.752;2023-04-28T05:15:03;13.80;;;9.97;;
815;SDS011;25928;51.062;13.752;2023-04-28T05:17:32;11.40;;;9.17;;
815;SDS011;25928;51.062;13.752;2023-04-28T05:19:58;10.40;;;9.30;;
815;SDS011;25928;51.062;13.752;2023-04-28T05:22:24;11.50;;;9.77;;
815;SDS011;25928;51.062;13.752;2023-04-28T05:24:50;11.87;;;10.20;;
815;SDS011;25928;51.062;13.752;2023-04-28T05:27:16;12.23;;;10.40;;
815;SDS011;25928;51.062;13.752;2023-04-28T05:29:42;12.23;;;10.23;;
815;SDS011;25928;51.062;13.752;2023-04-28T05:32:08;11.30;;;10.20;;
815;SDS011;25928;51.062;13.752;2023-04-28T05:34:33;13.60;;;9.87;;
815;SDS011;25928;51.062;13.752;2023-04-28T05:36:59;12.47;;;9.73;;
815;SDS011;25928;51.062;13.752;2023-04-28T05:39:25;12.00;;;9.83;;
815;SDS011;25928;51.062;13.752;2023-04-28T05:41:50;11.70;;;9.77;;
815;SDS011;25928;51.062;13.752;2023-04-28T05:44:16;14.33;;;10.20;;
815;SDS011;25928;51.062;13.752;2023-04-28T05:46:42;11.73;;;10.57;;
815;SDS011;25928;51.062;13.752;2023-04-28T05:49:08;13.00;;;10.13;;
815;SDS011;25928;51.062;13.752;2023-04-28T05:51:34;11.07;;;9.57;;
815;SDS011;25928;51.062;13.752;2023-04-28T05:54:00;12.60;;;9.60;;
815;SDS011;25928;51.062;13.752;2023-04-28T05:56:25;13.53;;;9.13;;
815;SDS011;25928;51.062;13.752;2023-04-28T05:58:51;11.47;;;8.33;;
815;SDS011;25928;51.062;13.752;2023-04-28T06:01:17;9.80;;;8.47;;
815;SDS011;25928;51.062;13.752;2023-04-28T06:03:43;13.93;;;8.43;;
815;SDS011;25928;51.062;13.752;2023-04-28T06:06:09;11.13;;;8.60;;
815;SDS011;25928;51.062;13.752;2023-04-28T06:08:35;11.73;;;8.47;;
815;SDS011;25928;51.062;13.752;2023-04-28T06:11:01;11.10;;;7.67;;
815;SDS011;25928;51.062;13.752;2023-04-28T06:13:26;11.50;;;7.40;;
815;SDS011;25928;51.062;13.752;2023-04-28T06:15:52;10.17;;;7.40;;
815;SDS011;25928;51.062;13.752;2023-04-28T06:18:18;15.87;;;7.50;;
815;SDS011;25928;51.062;13.752;2023-04-28T06:20:43;10.27;;;8.20;;
815;SDS011;25928;51.062;13.752;2023-04-28T06:23:09;11.03;;;7.40;;
815;SDS011;25928;51.062;13.752;2023-04-28T06:25:35;12.13;;;8.50;;
815;SDS011;25928;51.062;13.752;2023-04-28T06:28:01;12.20;;;8.07;;
815;SDS011;25928;51.062;13.752;2023-04-28T06:30:27;10.40;;;7.43;;
815;SDS011;25928;51.062;13.752;2023-04-28T06:32:53;8.57;;;7.67;;
815;SDS011;25928;51.062;13.752;2023-04-28T06:35:19;10.37;;;6.87;;
815;SDS011;25928;51.062;13.752;2023-04-28T06:37:46;13.50;;;7.00;;
815;SDS011;25928;51.062;13.752;2023-04-28T06:40:12;10.93;;;7.90;;
815;SDS011;25928;51.062;13.752;2023-04-28T06:42:37;9.60;;;7.37;;
815;SDS011;25928;51.062;13.752;2023-04-28T06:45:03;11.80;;;7.00;;
815;SDS011;25928;51.062;13.752;2023-04-28T06:47:29;9.07;;;7.00;;
815;SDS011;25928;51.062;13.752;2023-04-28T06:49:55;9.00;;;7.30;;
815;SDS011;25928;51.062;13.752;2023-04-28T06:52:21;8.50;;;6.83;;
815;SDS011;25928;51.062;13.752;2023-04-28T06:54:47;12.43;;;7.20;;
815;SDS011;25928;51.062;13.752;2023-04-28T06:57:13;8.00;;;7.30;;
815;SDS011;25928;51.062;13.752;2023-04-28T06:59:39;8.60;;;6.97;;
815;SDS011;25928;51.062;13.752;2023-04-28T07:02:07;11.67;;;6.93;;
815;SDS011;25928;51.062;13.752;2023-04-28T07:04:34;8.63;;;7.07;;
815;SDS011;25928;51.062;13.752;2023-04-28T07:07:00;9.50;;;6.80;;
815;SDS011;25928;51.062;13.752;2023-04-28T07:09:26;10.93;;;7.57;;
815;SDS011;25928;51.062;13.752;2023-04-28T07:11:51;14.70;;;7.87;;
815;SDS011;25928;51.062;13.752;2023-04-28T07:14:17;9.80;;;7.20;;
815;SDS011;25928;51.062;13.752;2023-04-28T07:16:43;10.20;;;7.07;;
815;SDS011;25928;51.062;13.752;2023-04-28T07:19:08;8.40;;;6.73;;
815;SDS011;25928;51.062;13.752;2023-04-28T07:21:34;9.23;;;7.23;;
815;SDS011;25928;51.062;13.752;2023-04-28T07:24:00;9.93;;;7.00;;
815;SDS011;25928;51.062;13.752;2023-04-28T07:26:25;9.90;;;7.70;;
815;SDS011;25928;51.062;13.752;2023-04-28T07:28:51;9.13;;;6.83;;
815;SDS011;25928;51.062;13.752;2023-04-28T07:31:17;6.90;;;6.10;;
815;SDS011;25928;51.062;13.752;2023-04-28T07:33:42;10.43;;;7.00;;
815;SDS011;25928;51.062;13.752;2023-04-28T07:36:08;8.80;;;6.47;;
815;SDS011;25928;51.062;13.752;2023-04-28T07:38:34;11.70;;;7.90;;
815;SDS011;25928;51.062;13.752;2023-04-28T07:41:01;12.20;;;7.20;;
815;SDS011;25928;51.062;13.752;2023-04-28T07:43:27;9.53;;;6.97;;
815;SDS011;25928;51.062;13.752;2023-04-28T07:45:53;10.13;;;6.90;;
815;SDS011;25928;51.062;13.752;2023-04-28T07:48:19;7.40;;;6.50;;
815;SDS011;25928;51.062;13.752;2023-04-28T07:50:45;8.60;;;6.73;;
815;SDS011;25928;51.062;13.752;2023-04-28T07:53:10;7.87;;;6.33;;
815;SDS011;25928;51.062;13.752;2023-04-28T07:55:36;16.80;;;7.73;;
815;SDS011;25928;51.062;13.752;2023-04-28T07:58:01;11.57;;;7.00;;
815;SDS011;25928;51.062;13.752;2023-04-28T08:00:27;13.73;;;7.27;;
815;SDS011;25928;51.062;13.752;2023-04-28T08:02:53;7.20;;;6.03;;
815;SDS011;25928;51.062;13.752;2023-04-28T08:05:19;8.00;;;6.37;;
815;SDS011;25928;51.062;13.752;2023-04-28T08:07:44;9.57;;;6.93;;
815;SDS011;25928;51.062;13.752;2023-04-28T08:10:10;10.20;;;7.07;;
815;SDS011;25928;51.062;13.752;2023-04-28T08:12:36;9.90;;;6.53;;
815;SDS011;25928;51.062;13.752;2023-04-28T08:15:02;8.37;;;6.73;;
815;SDS011;25928;51.062;13.752;2023-04-28T08:17:28;10.40;;;5.93;;
815;SDS011;25928;51.062;13.752;2023-04-28T08:19:54;7.00;;;6.00;;
815;SDS011;25928;51.062;13.752;2023-04-28T08:22:20;6.90;;;5.80;;
815;SDS011;25928;51.062;13.752;2023-04-28T08:24:45;7.27;;;6.27;;
815;SDS011;25928;51.062;13.752;2023-04-28T08:27:11;9.53;;;6.73;;
815;SDS011;25928;51.062;13.752;2023-04-28T08:29:37;12.07;;;6.70;;
815;SDS011;25928;51.062;13.752;2023-04-28T08:32:03;7.03;;;6.43;;
815;SDS011;25928;51.062;13.752;2023-04-28T08:34:30;10.63;;;7.27;;
815;SDS011;25928;51.062;13.752;2023-04-28T08:36:59;7.70;;;6.23;;
815;SDS011;25928;51.062;13.752;2023-04-28T08:39:25;8.53;;;6.23;;
815;SDS011;25928;51.062;13.752;2023-04-28T08:41:51;8.67;;;5.97;;
815;SDS011;25928;51.062;13.752;2023-04-28T08:44:17;7.33;;;6.07;;
815;SDS011;25928;51.062;13.752;2023-04-28T08:46:44;8.30;;;6.17;;
815;SDS011;25928;51.062;13.752;2023-04-28T08:49:11;11.50;;;6.70;;
815;SDS011;25928;51.062;13.752;2023-04-28T08:51:45;8.50;;;5.73;;
815;SDS011;25928;51.062;13.752;2023-04-28T08:54:15;9.03;;;6.10;;
815;SDS011;25928;51.062;13.752;2023-04-28T08:56:41;6.57;;;5.87;;
815;SDS011;25928;51.062;13.752;2023-04-28T08:59:10;8.37;;;6.30;;
815;SDS011;25928;51.062;13.752;2023-04-28T09:01:39;10.03;;;6.70;;
815;SDS011;25928;51.062;13.752;2023-04-28T09:04:05;8.30;;;6.17;;
815;SDS011;25928;51.062;13.752;2023-04-28T09:06:35;7.53;;;5.60;;
815;SDS011;25928;51.062;13.752;2023-04-28T09:09:19;9.23;;;6.63;;
815;SDS011;25928;51.062;13.752;2023-04-28T09:12:01;8.20;;;6.00;;
815;SDS011;25928;51.062;13.752;2023-04-28T09:14:29;9.97;;;6.03;;
815;SDS011;25928;51.062;13.752;2023-04-28T09:16:59;7.67;;;5.63;;
815;SDS011;25928;51.062;13.752;2023-04-28T09:19:34;11.97;;;5.83;;
815;SDS011;25928;51.062;13.752;2023-04-28T09:22:01;6.87;;;4.93;;
815;SDS011;25928;51.062;13.752;2023-04-28T09:24:27;7.63;;;5.97;;
815;SDS011;25928;51.062;13.752;2023-04-28T09:26:54;6.17;;;5.60;;
815;SDS011;25928;51.062;13.752;2023-04-28T09:29:20;7.80;;;6.10;;
815;SDS011;25928;51.062;13.752;2023-04-28T09:31:45;6.37;;;5.17;;
815;SDS011;25928;51.062;13.752;2023-04-28T09:34:11;6.27;;;5.27;;
815;SDS011;25928;51.062;13.752;2023-04-28T09:36:37;8.90;;;5.53;;
815;SDS011;25928;51.062;13.752;2023-04-28T09:39:03;6.13;;;4.90;;
815;SDS011;25928;51.062;13.752;2023-04-28T09:41:35;7.20;;;5.30;;
815;SDS011;25928;51.062;13.752;2023-04-28T09:46:57;7.00;;;4.57;;
815;SDS011;25928;51.062;13.752;2023-04-28T09:49:23;7.63;;;4.53;;
815;SDS011;25928;51.062;13.752;2023-04-28T09:51:48;5.90;;;4.60;;
815;SDS011;25928;51.062;13.752;2023-04-28T09:54:14;7.50;;;4.53;;
815;SDS011;25928;51.062;13.752;2023-04-28T09:56:40;5.17;;;4.67;;
815;SDS011;25928;51.062;13.752;2023-04-28T09:59:08;7.97;;;4.97;;
815;SDS011;25928;51.062;13.752;2023-04-28T10:01:37;7.57;;;3.97;;
815;SDS011;25928;51.062;13.752;2023-04-28T10:04:04;8.10;;;4.20;;
815;SDS011;25928;51.062;13.752;2023-04-28T10:06:34;7.60;;;4.33;;
815;SDS011;25928;51.062;13.752;2023-04-28T10:09:02;4.90;;;4.40;;
815;SDS011;25928;51.062;13.752;2023-04-28T10:11:29;5.97;;;4.83;;
815;SDS011;25928;51.062;13.752;2023-04-28T10:13:57;5.53;;;4.67;;
815;SDS011;25928;51.062;13.752;2023-04-28T10:16:23;6.47;;;4.50;;
815;SDS011;25928;51.062;13.752;2023-04-28T10:18:54;7.13;;;4.37;;
815;SDS011;25928;51.062;13.752;2023-04-28T10:21:21;6.63;;;4.43;;
815;SDS011;25928;51.062;13.752;2023-04-28T10:23:55;10.77;;;4.90;;
815;SDS011;25928;51.062;13.752;2023-04-28T10:27:12;7.90;;;4.43;;
815;SDS011;25928;51.062;13.752;2023-04-28T10:29:16;8.30;;;4.33;;
815;SDS011;25928;51.062;13.752;2023-04-28T10:34:50;7.27;;;4.80;;
815;SDS011;25928;51.062;13.752;2023-04-28T10:37:18;4.33;;;3.93;;
815;SDS011;25928;51.062;13.752;2023-04-28T10:42:54;6.03;;;4.27;;
815;SDS011;25928;51.062;13.752;2023-04-28T10:48:51;5.17;;;4.67;;
815;SDS011;25928;51.062;13.752;2023-04-28T10:56:09;7.70;;;5.40;;
815;SDS011;25928;51.062;13.752;2023-04-28T10:58:36;6.10;;;5.43;;
815;SDS011;25928;51.062;13.752;2023-04-28T11:03:49;6.73;;;5.70;;
815;SDS011;25928;51.062;13.752;2023-04-28T11:19:31;6.43;;;5.80;;
815;SDS011;25928;51.062;13.752;2023-04-28T11:21:58;7.47;;;5.80;;
815;SDS011;25928;51.062;13.752;2023-04-28T11:24:28;6.30;;;5.60;;
815;SDS011;25928;51.062;13.752;2023-04-28T11:26:55;7.07;;;5.57;;
815;SDS011;25928;51.062;13.752;2023-04-28T11:31:57;8.77;;;7.03;;
815;SDS011;25928;51.062;13.752;2023-04-28T11:34:23;9.10;;;6.50;;
815;SDS011;25928;51.062;13.752;2023-04-28T11:36:49;10.60;;;7.83;;
815;SDS011;25928;51.062;13.752;2023-04-28T11:39:15;9.87;;;7.00;;
815;SDS011;25928;51.062;13.752;2023-04-28T11:41:41;9.83;;;5.93;;
815;SDS011;25928;51.062;13.752;2023-04-28T11:44:09;8.00;;;6.73;;
815;SDS011;25928;51.062;13.752;2023-04-28T11:46:35;8.37;;;6.90;;
815;SDS011;25928;51.062;13.752;2023-04-28T11:50:03;9.20;;;7.37;;
815;SDS011;25928;51.062;13.752;2023-04-28T11:52:10;8.30;;;6.90;;
815;SDS011;25928;51.062;13.752;2023-04-28T11:54:36;8.67;;;7.20;;
815;SDS011;25928;51.062;13.752;2023-04-28T11:57:03;7.90;;;7.17;;
815;SDS011;25928;51.062;13.752;2023-04-28T11:59:33;8.63;;;7.73;;
815;SDS011;25928;51.062;13.752;2023-04-28T12:09:24;8.90;;;6.97;;
815;SDS011;25928;51.062;13.752;2023-04-28T12:11:57;7.27;;;6.57;;
815;SDS011;25928;51.062;13.752;2023-04-28T12:14:26;7.33;;;5.73;;
815;SDS011;25928;51.062;13.752;2023-04-28T12:16:52;6.80;;;6.10;;
815;SDS011;25928;51.062;13.752;2023-04-28T12:19:17;9.17;;;5.80;;
815;SDS011;25928;51.062;13.752;2023-04-28T12:21:57;5.93;;;5.30;;
815;SDS011;25928;51.062;13.752;2023-04-28T12:24:27;6.37;;;5.77;;
815;SDS011;25928;51.062;13.752;2023-04-28T12:26:53;7.00;;;5.93;;
815;SDS011;25928;51.062;13.752;2023-04-28T12:29:37;7.33;;;5.93;;
815;SDS011;25928;51.062;13.752;2023-04-28T12:32:05;7.37;;;6.50;;
815;SDS011;25928;51.062;13.752;2023-04-28T12:34:35;7.57;;;6.00;;
815;SDS011;25928;51.062;13.752;2023-04-28T12:37:01;7.90;;;6.30;;
815;SDS011;25928;51.062;13.752;2023-04-28T12:39:30;7.10;;;6.27;;
815;SDS011;25928;51.062;13.752;2023-04-28T12:41:57;8.30;;;6.83;;
815;SDS011;25928;51.062;13.752;2023-04-28T12:44:35;11.30;;;7.07;;
815;SDS011;25928;51.062;13.752;2023-04-28T12:47:10;8.50;;;7.03;;
815;SDS011;25928;51.062;13.752;2023-04-28T12:49:36;8.60;;;7.70;;
815;SDS011;25928;51.062;13.752;2023-04-28T12:52:02;8.63;;;7.83;;
815;SDS011;25928;51.062;13.752;2023-04-28T12:54:29;10.37;;;9.37;;
815;SDS011;25928;51.062;13.752;2023-04-28T12:56:55;12.53;;;9.37;;
815;SDS011;25928;51.062;13.752;2023-04-28T12:59:21;11.93;;;9.10;;
815;SDS011;25928;51.062;13.752;2023-04-28T13:01:47;12.70;;;10.10;;
815;SDS011;25928;51.062;13.752;2023-04-28T13:04:14;10.50;;;9.03;;
815;SDS011;25928;51.062;13.752;2023-04-28T13:06:40;12.17;;;10.93;;
815;SDS011;25928;51.062;13.752;2023-04-28T13:09:08;13.37;;;10.80;;
815;SDS011;25928;51.062;13.752;2023-04-28T13:11:40;11.57;;;10.17;;
815;SDS011;25928;51.062;13.752;2023-04-28T13:14:06;13.80;;;11.10;;
815;SDS011;25928;51.062;13.752;2023-04-28T13:16:32;16.70;;;11.87;;
815;SDS011;25928;51.062;13.752;2023-04-28T13:18:59;16.17;;;12.00;;
815;SDS011;25928;51.062;13.752;2023-04-28T13:21:25;15.70;;;10.93;;
815;SDS011;25928;51.062;13.752;2023-04-28T13:23:52;12.27;;;10.97;;
815;SDS011;25928;51.062;13.752;2023-04-28T13:26:19;12.50;;;10.90;;
815;SDS011;25928;51.062;13.752;2023-04-28T13:28:46;13.27;;;10.60;;
815;SDS011;25928;51.062;13.752;2023-04-28T13:31:12;12.27;;;11.03;;
815;SDS011;25928;51.062;13.752;2023-04-28T13:33:38;13.17;;;11.87;;
815;SDS011;25928;51.062;13.752;2023-04-28T13:36:04;10.63;;;9.60;;
815;SDS011;25928;51.062;13.752;2023-04-28T13:38:32;10.97;;;9.87;;
815;SDS011;25928;51.062;13.752;2023-04-28T13:40:57;12.10;;;10.10;;
815;SDS011;25928;51.062;13.752;2023-04-28T13:43:23;16.20;;;11.53;;
815;SDS011;25928;51.062;13.752;2023-04-28T13:45:49;14.00;;;10.97;;
815;SDS011;25928;51.062;13.752;2023-04-28T13:48:15;15.13;;;13.40;;
815;SDS011;25928;51.062;13.752;2023-04-28T13:50:41;12.07;;;10.83;;
815;SDS011;25928;51.062;13.752;2023-04-28T13:53:07;13.87;;;12.00;;
815;SDS011;25928;51.062;13.752;2023-04-28T13:55:32;11.90;;;10.80;;
815;SDS011;25928;51.062;13.752;2023-04-28T13:57:58;11.30;;;10.20;;
815;SDS011;25928;51.062;13.752;2023-04-28T14:00:28;11.13;;;10.10;;
815;SDS011;25928;51.062;13.752;2023-04-28T14:02:58;14.47;;;11.30;;
815;SDS011;25928;51.062;13.752;2023-04-28T14:05:24;13.47;;;10.97;;
815;SDS011;25928;51.062;13.752;2023-04-28T14:07:52;15.60;;;11.17;;
815;SDS011;25928;51.062;13.752;2023-04-28T14:10:18;12.33;;;10.20;;
815;SDS011;25928;51.062;13.752;2023-04-28T14:12:44;11.77;;;10.60;;
815;SDS011;25928;51.062;13.752;2023-04-28T14:15:09;13.67;;;11.20;;
815;SDS011;25928;51.062;13.752;2023-04-28T14:17:35;12.27;;;11.07;;
815;SDS011;25928;51.062;13.752;2023-04-28T14:20:01;14.77;;;10.90;;
815;SDS011;25928;51.062;13.752;2023-04-28T14:22:27;12.03;;;10.17;;
815;SDS011;25928;51.062;13.752;2023-04-28T14:24:53;14.33;;;11.70;;
815;SDS011;25928;51.062;13.752;2023-04-28T14:27:19;14.30;;;11.43;;
815;SDS011;25928;51.062;13.752;2023-04-28T14:29:45;12.97;;;10.63;;
815;SDS011;25928;51.062;13.752;2023-04-28T14:32:15;13.30;;;10.60;;
815;SDS011;25928;51.062;13.752;2023-04-28T14:34:44;14.07;;;10.93;;
815;SDS011;25928;51.062;13.752;2023-04-28T14:37:11;13.57;;;11.83;;
815;SDS011;25928;51.062;13.752;2023-04-28T14:39:37;11.47;;;10.27;;
815;SDS011;25928;51.062;13.752;2023-04-28T14:42:03;11.63;;;10.43;;
815;SDS011;25928;51.062;13.752;2023-04-28T14:44:30;13.27;;;11.83;;
815;SDS011;25928;51.062;13.752;2023-04-28T14:46:56;12.90;;;9.93;;
815;SDS011;25928;51.062;13.752;2023-04-28T14:49:22;15.40;;;11.33;;
815;SDS011;25928;51.062;13.752;2023-04-28T14:51:48;13.57;;;11.17;;
815;SDS011;25928;51.062;13.752;2023-04-28T14:54:14;11.90;;;10.60;;
815;SDS011;25928;51.062;13.752;2023-04-28T14:56:40;10.17;;;9.17;;
815;SDS011;25928;51.062;13.752;2023-04-28T14:59:05;12.37;;;10.10;;
815;SDS011;25928;51.062;13.752;2023-04-28T15:01:32;11.70;;;10.23;;
815;SDS011;25928;51.062;13.752;2023-04-28T15:03:57;10.57;;;9.57;;
815;SDS011;25928;51.062;13.752;2023-04-28T15:06:24;11.23;;;10.00;;
815;SDS011;25928;51.062;13.752;2023-04-28T15:08:50;11.00;;;9.87;;
815;SDS011;25928;51.062;13.752;2023-04-28T15:11:17;11.27;;;9.93;;
815;SDS011;25928;51.062;13.752;2023-04-28T15:13:42;11.30;;;9.43;;
815;SDS011;25928;51.062;13.752;2023-04-28T15:16:08;12.70;;;9.70;;
815;SDS011;25928;51.062;13.752;2023-04-28T15:18:34;10.47;;;9.57;;
815;SDS011;25928;51.062;13.752;2023-04-28T15:21:00;11.63;;;9.60;;
815;SDS011;25928;51.062;13.752;2023-04-28T15:23:25;9.77;;;8.90;;
815;SDS011;25928;51.062;13.752;2023-04-28T15:25:51;9.63;;;8.73;;
815;SDS011;25928;51.062;13.752;2023-04-28T15:28:18;10.43;;;9.43;;